Time;durP1;ratioP1;P1;durP2;ratioP2;P2;SDS_P1;SDS_P2;PMS_P1;PMS_P2;Temp;Humidity;BMP_temperature;BMP_pressure;BME280_temperature;BME280_humidity;BME280_pressure;Samples;Min_cycle;Max_cycle;Signal;HPM_P1;HPM_P2
2023/01/11 00:01:05;;;;;;;5.07;3.87;;;9.80;99.90;;;;;;5085263;28;20029;-70
2023/01/11 00:03:31;;;;;;;7.13;4.40;;;9.80;99.90;;;;;;5080466;28;20107;-70
2023/01/11 00:05:57;;;;;;;4.90;4.00;;;9.70;99.90;;;;;;5084578;28;20441;-69
2023/01/11 00:08:23;;;;;;;7.20;4.70;;;;;;;;;;5084500;28;20025;-69
2023/01/11 00:10:49;;;;;;;8.40;4.43;;;9.80;99.90;;;;;;5076036;28;20036;-69
2023/01/11 00:13:15;;;;;;;8.17;4.77;;;9.70;99.90;;;;;;5088297;28;20020;-70
2023/01/11 00:15:41;;;;;;;8.07;4.60;;;9.80;99.90;;;;;;5089772;28;20036;-69
2023/01/11 00:18:07;;;;;;;7.43;4.53;;;10.00;99.90;;;;;;5089473;28;20024;-69
2023/01/11 00:20:33;;;;;;;7.00;4.50;;;9.90;99.90;;;;;;5093645;28;20035;-69
2023/01/11 00:22:59;;;;;;;6.23;4.23;;;9.50;99.90;;;;;;5091834;28;20020;-69
2023/01/11 00:25:25;;;;;;;7.33;4.07;;;10.00;99.90;;;;;;5092801;28;20032;-69
2023/01/11 00:27:50;;;;;;;7.20;4.80;;;10.10;99.90;;;;;;5091514;28;20055;-69
2023/01/11 00:30:17;;;;;;;8.07;4.83;;;9.80;99.90;;;;;;5092419;28;20020;-71
2023/01/11 00:32:43;;;;;;;9.03;4.53;;;10.00;99.90;;;;;;5091580;28;20121;-71
2023/01/11 00:35:09;;;;;;;7.03;4.50;;;10.00;99.90;;;;;;5091981;28;20058;-72
2023/01/11 00:37:34;;;;;;;8.67;4.13;;;10.00;99.90;;;;;;5091349;28;20028;-71
2023/01/11 00:40:00;;;;;;;7.40;4.23;;;10.10;99.90;;;;;;5091557;28;20065;-72
2023/01/11 00:47:57;;;;;;;6.45;4.50;;;10.10;99.90;;;;;;5091825;28;20160;-71
2023/01/11 00:50:24;;;;;;;8.00;3.67;;;10.10;99.90;;;;;;5080588;28;20089;-71
2023/01/11 00:52:50;;;;;;;5.03;3.80;;;;;;;;;;5091958;28;20024;-71
2023/01/11 00:55:15;;;;;;;8.93;4.83;;;10.10;99.90;;;;;;5090319;28;20043;-72
2023/01/11 00:57:41;;;;;;;6.63;3.93;;;9.70;99.90;;;;;;5091688;28;20668;-72
2023/01/11 01:00:08;;;;;;;7.27;4.17;;;10.20;99.90;;;;;;5090394;28;20047;-71
2023/01/11 01:02:34;;;;;;;8.73;4.33;;;10.10;99.90;;;;;;5092074;28;20039;-72
2023/01/11 01:05:00;;;;;;;6.83;4.80;;;10.20;99.90;;;;;;5090143;28;20024;-72
2023/01/11 01:07:25;;;;;;;4.30;3.90;;;10.40;99.90;;;;;;5091673;28;20042;-72
2023/01/11 01:09:51;;;;;;;6.47;3.60;;;;;;;;;;5085504;28;20099;-72
2023/01/11 01:15:01;;;;;;;7.82;3.30;;;10.20;99.90;;;;;;5079249;28;20039;-72
2023/01/11 01:17:27;;;;;;;7.10;3.90;;;10.20;99.90;;;;;;5091476;28;20446;-71
2023/01/11 01:19:53;;;;;;;8.33;4.00;;;;;;;;;;5085271;28;20024;-71
2023/01/11 01:22:18;;;;;;;4.90;3.43;;;10.40;99.90;;;;;;5072539;28;20021;-72
2023/01/11 01:24:44;;;;;;;3.60;3.30;;;;;;;;;;5091908;28;20104;-72
2023/01/11 01:27:14;;;;;;;7.37;3.43;;;10.40;99.90;;;;;;5090179;28;20123;-72
2023/01/11 01:29:40;;;;;;;4.97;3.67;;;10.30;99.90;;;;;;5072123;28;20017;-72
2023/01/11 01:32:05;;;;;;;6.47;2.83;;;10.40;99.90;;;;;;5071891;28;20021;-72
2023/01/11 01:34:31;;;;;;;5.27;3.47;;;10.50;99.90;;;;;;5079871;28;20047;-72
2023/01/11 01:36:56;;;;;;;8.70;4.07;;;10.30;99.90;;;;;;5077546;28;20050;-72
2023/01/11 01:39:22;;;;;;;6.47;2.67;;;10.40;99.90;;;;;;5071770;28;20056;-72
2023/01/11 01:41:47;;;;;;;3.10;2.80;;;10.30;99.90;;;;;;5072417;28;20401;-72
2023/01/11 01:44:52;;;;;;;4.93;3.67;;;10.40;99.90;;;;;;5071828;28;20024;-72
2023/01/11 01:47:21;;;;;;;8.80;3.47;;;10.30;99.90;;;;;;5072847;28;20028;-72
2023/01/11 01:49:47;;;;;;;6.37;3.90;;;10.30;99.90;;;;;;5073125;28;20539;-72
2023/01/11 01:52:13;;;;;;;5.37;3.30;;;10.40;99.90;;;;;;5072976;28;20021;-72
2023/01/11 01:54:42;;;;;;;4.77;3.50;;;10.30;99.90;;;;;;5072346;28;20385;-72
2023/01/11 01:57:16;;;;;;;5.07;3.60;;;10.50;99.90;;;;;;5072388;28;20363;-72
2023/01/11 01:59:42;;;;;;;3.73;2.63;;;10.50;99.90;;;;;;5073413;28;20063;-72
2023/01/11 02:02:08;;;;;;;3.13;2.90;;;;;;;;;;5071978;28;20106;-72
2023/01/11 02:04:40;;;;;;;3.47;2.90;;;10.30;99.90;;;;;;5081148;28;20031;-72
2023/01/11 02:07:31;;;;;;;4.97;3.00;;;10.40;99.90;;;;;;5071336;28;20020;-73
2023/01/11 02:10:11;;;;;;;2.67;2.47;;;10.50;99.90;;;;;;5060990;28;20039;-72
2023/01/11 02:12:49;;;;;;;4.53;2.77;;;10.40;99.90;;;;;;5072396;28;20021;-71
2023/01/11 02:15:17;;;;;;;3.00;2.70;;;10.40;99.90;;;;;;5091122;28;20020;-72
2023/01/11 02:17:42;;;;;;;4.50;2.87;;;10.30;99.90;;;;;;5086897;28;20028;-72
2023/01/11 02:20:41;;;;;;;3.00;2.23;;;10.40;99.90;;;;;;5069847;28;20024;-72
2023/01/11 02:23:43;;;;;;;2.60;2.30;;;10.10;99.90;;;;;;5070509;28;20020;-72
2023/01/11 02:26:44;;;;;;;2.40;2.20;;;10.50;99.90;;;;;;5070814;28;20096;-73
2023/01/11 02:29:29;;;;;;;2.60;2.40;;;10.40;99.90;;;;;;5074550;28;20030;-72
2023/01/11 02:32:04;;;;;;;2.70;2.50;;;10.30;99.90;;;;;;5090700;28;20020;-72
2023/01/11 02:35:07;;;;;;;3.90;2.53;;;10.40;99.90;;;;;;5077994;28;20082;-72
2023/01/11 02:38:06;;;;;;;3.83;3.00;;;10.40;99.90;;;;;;5048674;28;20037;-72
2023/01/11 02:40:53;;;;;;;2.90;2.60;;;10.50;99.90;;;;;;5072483;28;20029;-72
2023/01/11 02:46:53;;;;;;;2.93;2.73;;;10.50;99.90;;;;;;5081962;28;20047;-72
2023/01/11 02:49:43;;;;;;;3.57;3.27;;;10.60;99.90;;;;;;5090601;28;20511;-72
2023/01/11 02:52:21;;;;;;;3.37;2.40;;;10.50;99.90;;;;;;5089278;28;20028;-72
2023/01/11 02:54:53;;;;;;;4.87;2.80;;;10.60;99.90;;;;;;5088363;28;20032;-72
2023/01/11 02:57:21;;;;;;;3.37;3.07;;;10.60;99.90;;;;;;5089215;28;20020;-72
2023/01/11 02:59:48;;;;;;;3.10;2.53;;;10.70;99.90;;;;;;5088503;28;20102;-72
2023/01/11 03:02:15;;;;;;;5.00;2.90;;;10.60;99.90;;;;;;5087700;28;20038;-72
2023/01/11 03:04:41;;;;;;;3.27;2.77;;;10.70;99.90;;;;;;5086505;28;20028;-72
2023/01/11 03:07:27;;;;;;;4.72;3.40;;;10.80;99.90;;;;;;5087703;28;20036;-72
2023/01/11 03:10:23;;;;;;;4.13;3.30;;;10.70;99.90;;;;;;5083953;28;20032;-73
2023/01/11 03:13:03;;;;;;;6.17;2.93;;;10.60;99.90;;;;;;5086183;28;20032;-73
2023/01/11 03:15:51;;;;;;;3.17;2.87;;;10.80;99.90;;;;;;5079546;28;20476;-72
2023/01/11 03:18:38;;;;;;;3.67;3.03;;;10.80;99.90;;;;;;5069888;28;20020;-72
2023/01/11 03:21:32;;;;;;;3.50;3.20;;;10.70;99.90;;;;;;5070292;28;20024;-73
2023/01/11 03:24:08;;;;;;;5.30;3.73;;;10.80;99.90;;;;;;5069480;28;20481;-72
2023/01/11 03:26:44;;;;;;;5.88;3.40;;;10.60;99.90;;;;;;5070241;28;20103;-72
2023/01/11 03:29:21;;;;;;;4.25;3.80;;;10.70;99.90;;;;;;5070137;28;20020;-73
2023/01/11 03:31:52;;;;;;;4.33;3.03;;;10.70;99.90;;;;;;5070581;28;20021;-72
2023/01/11 03:34:28;;;;;;;5.15;3.03;;;11.00;99.90;;;;;;5070444;28;20020;-72
2023/01/11 03:37:05;;;;;;;2.77;2.23;;;11.00;99.90;;;;;;5070672;28;20035;-72
2023/01/11 03:39:43;;;;;;;3.80;3.07;;;10.90;99.90;;;;;;5070645;28;20591;-72
2023/01/11 03:42:13;;;;;;;3.23;2.87;;;11.00;99.90;;;;;;5071297;28;20052;-72
2023/01/11 03:44:43;;;;;;;4.57;2.78;;;10.90;99.90;;;;;;5071026;28;20060;-72
2023/01/11 03:47:13;;;;;;;2.80;2.60;;;10.50;99.90;;;;;;5071472;28;20028;-72
2023/01/11 03:49:53;;;;;;;4.10;2.80;;;11.10;99.90;;;;;;5069309;28;20485;-72
2023/01/11 03:52:26;;;;;;;5.10;2.73;;;11.00;99.90;;;;;;5070337;28;20032;-72
2023/01/11 03:54:54;;;;;;;3.70;3.10;;;11.20;99.90;;;;;;5075924;28;20473;-72
2023/01/11 03:57:24;;;;;;;3.00;2.70;;;11.10;99.90;;;;;;5089684;28;20028;-72
2023/01/11 03:59:50;;;;;;;2.60;2.40;;;11.00;99.90;;;;;;5080389;28;20032;-70
2023/01/11 04:02:24;;;;;;;4.55;2.60;;;11.00;99.90;;;;;;5074553;28;20021;-71
2023/01/11 04:04:50;;;;;;;4.35;3.15;;;11.20;99.90;;;;;;5075284;28;20502;-70
2023/01/11 04:07:17;;;;;;;2.90;2.60;;;11.20;99.90;;;;;;5074700;28;20060;-71
2023/01/11 04:09:43;;;;;;;4.78;3.13;;;11.00;99.90;;;;;;5074447;28;20021;-71
2023/01/11 04:12:08;;;;;;;5.33;3.40;;;11.10;99.90;;;;;;5073570;28;20024;-71
2023/01/11 04:14:34;;;;;;;3.10;2.77;;;11.20;99.90;;;;;;5090383;28;20107;-71
2023/01/11 04:16:59;;;;;;;3.83;3.53;;;11.10;99.90;;;;;;5083379;28;20159;-71
2023/01/11 04:19:25;;;;;;;6.50;3.20;;;11.10;99.90;;;;;;5089587;28;20027;-71
2023/01/11 04:21:50;;;;;;;3.88;3.00;;;11.10;99.90;;;;;;5101863;28;20110;-71
2023/01/11 04:24:17;;;;;;;4.22;2.78;;;11.10;99.90;;;;;;5082176;28;20117;-72
2023/01/11 04:26:43;;;;;;;3.80;3.07;;;11.20;99.90;;;;;;5084562;28;20016;-71
2023/01/11 04:29:09;;;;;;;4.23;3.83;;;11.10;99.90;;;;;;5083236;28;20117;-71
2023/01/11 04:31:34;;;;;;;3.57;3.27;;;11.60;99.90;;;;;;5085280;28;20055;-72
2023/01/11 04:34:00;;;;;;;4.50;4.05;;;11.30;99.90;;;;;;5083754;28;20036;-71
2023/01/11 04:36:27;;;;;;;3.45;3.15;;;11.10;99.90;;;;;;5085397;28;20380;-72
2023/01/11 04:38:53;;;;;;;5.35;4.18;;;11.50;99.90;;;;;;5088183;28;20818;-71
2023/01/11 04:44:03;;;;;;;6.07;5.20;;;11.50;99.90;;;;;;5082502;28;20488;-72
2023/01/11 04:46:29;;;;;;;8.50;5.85;;;11.40;99.90;;;;;;5087323;28;20091;-71
2023/01/11 04:48:55;;;;;;;5.13;4.63;;;11.50;99.90;;;;;;5087035;28;20027;-72
2023/01/11 04:51:21;;;;;;;7.05;5.15;;;11.30;99.90;;;;;;5087842;28;20055;-72
2023/01/11 04:53:47;;;;;;;7.38;4.80;;;11.40;99.90;;;;;;5083057;28;20101;-72
2023/01/11 04:56:14;;;;;;;7.60;5.30;;;11.30;99.90;;;;;;5092661;28;20371;-72
2023/01/11 04:58:40;;;;;;;6.85;5.30;;;11.40;99.90;;;;;;5082867;28;20058;-72
2023/01/11 05:01:10;;;;;;;5.20;4.70;;;11.50;99.90;;;;;;5088137;28;20138;-72
2023/01/11 05:03:36;;;;;;;7.17;5.97;;;11.30;99.90;;;;;;5086811;28;20029;-72
2023/01/11 05:06:02;;;;;;;6.78;5.43;;;11.20;99.90;;;;;;5091432;28;20024;-72
2023/01/11 05:08:29;;;;;;;9.20;7.87;;;11.30;99.90;;;;;;5083145;28;20107;-71
2023/01/11 05:10:56;;;;;;;9.27;7.70;;;11.60;99.90;;;;;;5078537;28;20075;-72
2023/01/11 05:13:40;;;;;;;9.32;8.20;;;12.10;99.90;;;;;;5078195;28;20018;-71
2023/01/11 05:16:11;;;;;;;9.15;8.23;;;11.40;99.90;;;;;;5092102;28;20035;-71
2023/01/11 05:18:41;;;;;;;8.88;7.97;;;11.40;99.90;;;;;;5091520;28;20116;-72
2023/01/11 05:21:08;;;;;;;12.30;7.85;;;11.60;99.90;;;;;;5091946;28;20042;-71
2023/01/11 05:23:35;;;;;;;12.55;8.93;;;11.50;99.90;;;;;;5092566;28;20036;-71
2023/01/11 05:26:06;;;;;;;13.38;8.65;;;11.70;99.90;;;;;;5078434;28;20036;-72
2023/01/11 05:28:32;;;;;;;11.68;9.38;;;11.40;99.90;;;;;;5091280;28;20035;-72
2023/01/11 05:30:58;;;;;;;15.43;10.73;;;11.50;99.90;;;;;;5086396;28;20016;-72
2023/01/11 05:33:23;;;;;;;11.77;9.23;;;11.40;99.90;;;;;;5083820;28;20523;-71
2023/01/11 05:35:49;;;;;;;14.45;9.15;;;11.40;99.90;;;;;;5074063;28;20029;-71
2023/01/11 05:38:14;;;;;;;14.68;9.25;;;11.60;99.90;;;;;;5072007;28;20040;-72
2023/01/11 05:40:40;;;;;;;13.25;8.02;;;11.50;99.90;;;;;;5072731;28;20634;-71
2023/01/11 05:43:05;;;;;;;13.25;9.02;;;11.60;99.90;;;;;;5072326;28;20036;-71
2023/01/11 05:45:32;;;;;;;13.30;8.70;;;11.50;99.90;;;;;;5072788;28;20051;-71
2023/01/11 05:47:58;;;;;;;17.58;8.55;;;11.30;99.90;;;;;;5072302;28;20017;-71
2023/01/11 05:50:24;;;;;;;11.95;8.73;;;11.40;99.90;;;;;;5072856;28;20032;-71
2023/01/11 05:52:50;;;;;;;19.33;8.63;;;11.90;99.90;;;;;;5072306;28;20104;-71
2023/01/11 05:55:16;;;;;;;14.52;7.95;;;11.40;99.90;;;;;;5072085;28;20100;-71
2023/01/11 05:57:43;;;;;;;10.95;7.07;;;11.30;99.90;;;;;;5071786;28;20035;-71
2023/01/11 06:00:10;;;;;;;13.77;6.75;;;11.60;99.90;;;;;;5071483;28;20039;-71
2023/01/11 06:02:36;;;;;;;11.40;6.10;;;11.50;99.90;;;;;;5071569;28;20036;-71
2023/01/11 06:05:02;;;;;;;9.98;6.15;;;11.60;99.90;;;;;;5072698;28;20024;-71
2023/01/11 06:07:28;;;;;;;10.90;6.10;;;;;;;;;;5078962;28;20036;-71
2023/01/11 06:09:53;;;;;;;13.10;6.22;;;11.50;99.90;;;;;;5084022;28;20020;-71
2023/01/11 06:12:19;;;;;;;19.17;6.10;;;11.30;99.90;;;;;;5082482;28;20145;-71
2023/01/11 06:14:45;;;;;;;12.37;5.57;;;11.30;99.90;;;;;;5089407;28;20032;-71
2023/01/11 06:17:10;;;;;;;12.63;4.50;;;11.10;99.90;;;;;;5090063;28;20035;-71
2023/01/11 06:19:36;;;;;;;15.07;4.18;;;11.20;99.90;;;;;;5090213;28;20016;-70
2023/01/11 06:22:01;;;;;;;13.60;5.43;;;11.10;99.90;;;;;;5090656;28;20465;-71
2023/01/11 06:24:27;;;;;;;11.23;4.57;;;;;;;;;;5089327;28;20020;-71
2023/01/11 06:26:53;;;;;;;13.73;3.83;;;10.90;99.90;;;;;;5090853;28;20043;-71
2023/01/11 06:29:19;;;;;;;21.97;4.40;;;11.10;99.90;;;;;;5090191;28;20024;-71
2023/01/11 06:31:44;;;;;;;19.02;4.22;;;11.10;99.90;;;;;;5089651;28;20123;-69
2023/01/11 06:34:10;;;;;;;14.90;3.97;;;11.00;99.90;;;;;;5090333;28;20082;-68
2023/01/11 06:36:37;;;;;;;19.10;2.97;;;10.90;99.90;;;;;;5090786;28;20031;-68
2023/01/11 06:39:03;;;;;;;14.90;2.50;;;10.90;99.90;;;;;;5090427;28;20035;-68
2023/01/11 06:41:29;;;;;;;16.90;3.33;;;10.70;99.90;;;;;;5085777;28;20118;-68
2023/01/11 06:43:54;;;;;;;18.73;2.90;;;10.90;99.90;;;;;;5090004;28;20101;-68
2023/01/11 06:46:20;;;;;;;14.53;3.23;;;;;;;;;;5090129;28;20024;-68
2023/01/11 06:48:46;;;;;;;18.33;2.43;;;10.90;99.90;;;;;;5090367;28;20032;-67
2023/01/11 06:51:13;;;;;;;24.83;4.53;;;10.90;99.90;;;;;;5090193;28;20038;-69
2023/01/11 06:53:40;;;;;;;16.73;3.20;;;;;;;;;;5089026;28;20540;-68
2023/01/11 06:56:06;;;;;;;15.90;2.87;;;10.80;99.90;;;;;;5089878;28;20502;-68
2023/01/11 06:58:31;;;;;;;16.70;2.63;;;10.80;99.90;;;;;;5098556;28;20044;-68
2023/01/11 07:00:57;;;;;;;9.50;2.33;;;;;;;;;;5083955;28;20020;-68
2023/01/11 07:03:24;;;;;;;13.17;2.70;;;11.00;99.90;;;;;;5082737;28;20069;-68
2023/01/11 07:05:55;;;;;;;25.15;3.63;;;10.80;99.90;;;;;;5083838;28;20477;-68
2023/01/11 07:08:21;;;;;;;15.97;3.00;;;10.80;99.90;;;;;;5076879;28;20542;-68
2023/01/11 07:10:47;;;;;;;13.43;2.57;;;10.90;99.90;;;;;;5070556;28;20025;-69
2023/01/11 07:13:16;;;;;;;18.07;2.47;;;10.80;99.90;;;;;;5083296;28;20108;-69
2023/01/11 07:15:50;;;;;;;24.77;3.70;;;10.80;99.90;;;;;;5070460;28;20149;-68
2023/01/11 07:18:17;;;;;;;21.90;5.20;;;10.80;99.90;;;;;;5070237;28;20032;-68
2023/01/11 07:20:43;;;;;;;22.57;3.13;;;10.70;99.90;;;;;;5070807;28;20024;-68
2023/01/11 07:23:09;;;;;;;17.63;3.57;;;10.70;99.90;;;;;;5070535;28;20040;-69
2023/01/11 07:25:35;;;;;;;22.33;4.43;;;10.60;99.90;;;;;;5071258;28;20032;-67
2023/01/11 07:28:03;;;;;;;27.80;3.97;;;10.60;99.90;;;;;;5092572;28;20024;-67
2023/01/11 07:30:31;;;;;;;20.20;2.57;;;10.50;99.90;;;;;;5091231;28;20016;-68
2023/01/11 07:32:57;;;;;;;18.43;3.20;;;10.60;99.90;;;;;;5084926;28;20035;-68
2023/01/11 07:35:23;;;;;;;17.03;2.60;;;;;;;;;;5107734;28;20669;-68
2023/01/11 07:37:49;;;;;;;20.07;2.53;;;;;;;;;;5090644;28;20111;-68
2023/01/11 07:40:16;;;;;;;30.47;3.83;;;10.30;99.90;;;;;;5087778;28;20028;-68
2023/01/11 07:43:13;;;;;;;10.97;2.73;;;10.50;99.90;;;;;;5088604;28;20044;-69
2023/01/11 07:45:40;;;;;;;16.73;2.57;;;10.20;99.90;;;;;;5087995;28;20023;-69
2023/01/11 07:48:09;;;;;;;17.83;2.50;;;10.30;99.90;;;;;;5088923;28;20028;-69
2023/01/11 07:50:37;;;;;;;12.60;2.10;;;10.20;99.90;;;;;;5088697;28;20023;-69
2023/01/11 07:53:03;;;;;;;16.80;3.00;;;;;;;;;;5094111;28;20724;-69
2023/01/11 07:55:29;;;;;;;21.10;3.83;;;;;;;;;;5071999;28;20043;-69
2023/01/11 07:57:58;;;;;;;10.13;2.03;;;10.00;99.90;;;;;;5073071;28;20042;-69
2023/01/11 08:00:24;;;;;;;11.07;2.47;;;10.10;99.90;;;;;;5069117;28;20426;-68
2023/01/11 08:02:53;;;;;;;22.20;3.90;;;10.00;99.90;;;;;;5073278;28;20234;-68
2023/01/11 08:05:19;;;;;;;19.73;3.27;;;9.90;99.90;;;;;;5080064;28;20219;-68
2023/01/11 08:07:45;;;;;;;17.40;2.23;;;9.90;99.90;;;;;;5072961;28;20024;-68
2023/01/11 08:10:11;;;;;;;21.30;2.53;;;9.80;99.90;;;;;;5080441;28;20515;-69
2023/01/11 08:15:32;;;;;;;19.30;2.10;;;9.80;99.90;;;;;;5079417;28;20072;-69
2023/01/11 08:17:58;;;;;;;15.03;2.83;;;9.70;99.90;;;;;;5078767;28;20020;-69
2023/01/11 08:20:25;;;;;;;18.93;3.07;;;;;;;;;;5088099;28;20031;-68
2023/01/11 08:22:51;;;;;;;17.87;3.20;;;9.40;99.90;;;;;;5087490;28;20016;-68
2023/01/11 08:25:17;;;;;;;15.67;3.17;;;9.60;99.90;;;;;;5096960;28;20023;-68
2023/01/11 08:27:43;;;;;;;17.57;3.33;;;;;;;;;;5090942;28;20076;-68
2023/01/11 08:30:10;;;;;;;19.73;4.43;;;9.50;99.90;;;;;;5095638;28;20055;-68
2023/01/11 08:32:35;;;;;;;16.83;3.20;;;9.50;99.90;;;;;;5089793;28;20142;-68
2023/01/11 08:35:01;;;;;;;19.33;3.00;;;9.60;99.90;;;;;;5083070;28;20571;-68
2023/01/11 08:37:27;;;;;;;22.53;2.50;;;9.60;99.90;;;;;;5082658;28;20029;-67
2023/01/11 08:39:54;;;;;;;22.10;3.30;;;9.60;99.90;;;;;;5081015;28;20480;-67
2023/01/11 08:42:20;;;;;;;17.57;2.90;;;;;;;;;;5078105;28;20450;-67
2023/01/11 08:44:46;;;;;;;20.60;2.47;;;9.80;99.90;;;;;;5075337;28;20106;-67
2023/01/11 08:47:11;;;;;;;20.40;3.77;;;9.60;99.90;;;;;;5072801;28;20035;-68
2023/01/11 08:49:39;;;;;;;15.27;2.63;;;;;;;;;;5087616;28;20074;-68
2023/01/11 08:52:05;;;;;;;18.00;3.60;;;;;;;;;;5076955;28;20017;-68
2023/01/11 08:54:30;;;;;;;22.90;3.17;;;9.60;99.90;;;;;;5094554;28;20028;-67
2023/01/11 08:56:56;;;;;;;12.80;3.03;;;;;;;;;;5109400;28;20026;-67
2023/01/11 08:59:22;;;;;;;19.20;3.00;;;9.40;99.90;;;;;;5097710;28;20024;-68
2023/01/11 09:01:48;;;;;;;11.87;2.53;;;9.30;99.90;;;;;;5102221;28;20028;-68
2023/01/11 09:04:13;;;;;;;21.30;2.90;;;9.30;99.90;;;;;;5104556;28;20032;-68
2023/01/11 09:06:39;;;;;;;13.70;3.67;;;9.20;99.90;;;;;;5088270;28;20028;-69
2023/01/11 09:09:04;;;;;;;14.43;2.67;;;;;;;;;;5096186;28;20032;-68
2023/01/11 09:14:15;;;;;;;13.82;2.45;;;;;;;;;;5091807;28;20039;-68
2023/01/11 09:16:40;;;;;;;17.67;2.50;;;;;;;;;;5082121;28;20446;-68
2023/01/11 09:19:06;;;;;;;25.50;4.53;;;9.20;99.90;;;;;;5076847;28;20033;-68
2023/01/11 09:21:32;;;;;;;17.03;4.30;;;9.20;99.90;;;;;;5082904;28;20067;-68
2023/01/11 09:23:57;;;;;;;25.57;3.60;;;9.30;99.90;;;;;;5077418;28;20028;-68
2023/01/11 09:26:23;;;;;;;18.47;2.90;;;9.30;99.90;;;;;;5076138;28;20029;-68
2023/01/11 09:28:48;;;;;;;17.33;3.63;;;9.20;99.90;;;;;;5077487;28;20032;-68
2023/01/11 09:31:14;;;;;;;20.23;2.67;;;;;;;;;;5072906;28;20024;-68
2023/01/11 09:33:39;;;;;;;18.43;3.73;;;9.20;99.90;;;;;;5075010;28;20086;-68
2023/01/11 09:36:05;;;;;;;15.53;3.57;;;9.00;99.90;;;;;;5079054;28;20132;-68
2023/01/11 09:38:32;;;;;;;22.97;3.13;;;9.00;99.90;;;;;;5086243;28;20123;-68
2023/01/11 09:41:20;;;;;;;21.27;2.50;;;9.30;99.90;;;;;;5087568;28;20040;-68
2023/01/11 09:43:54;;;;;;;22.67;3.10;;;8.80;99.90;;;;;;5078536;28;20055;-68
2023/01/11 09:46:20;;;;;;;20.42;2.42;;;8.80;99.90;;;;;;5078692;28;20038;-68
2023/01/11 09:48:50;;;;;;;16.47;4.50;;;9.20;99.90;;;;;;5076519;28;20028;-68
2023/01/11 09:51:18;;;;;;;18.20;3.77;;;8.90;99.90;;;;;;5078781;28;20020;-67
2023/01/11 09:53:49;;;;;;;23.43;3.50;;;8.80;99.90;;;;;;5076946;28;20031;-68
2023/01/11 09:56:23;;;;;;;17.13;3.27;;;8.80;99.90;;;;;;5097364;28;20464;-68
2023/01/11 09:58:49;;;;;;;17.13;3.23;;;;;;;;;;5101277;28;20039;-67
2023/01/11 10:01:32;;;;;;;19.30;3.00;;;8.40;99.90;;;;;;5083051;28;20484;-69
2023/01/11 10:04:31;;;;;;;21.27;3.70;;;8.90;99.90;;;;;;5079690;28;20013;-67
2023/01/11 10:07:23;;;;;;;15.07;3.10;;;9.00;99.90;;;;;;5092276;28;20032;-68
2023/01/11 10:10:17;;;;;;;15.00;2.73;;;8.50;99.90;;;;;;5087434;28;20462;-67
2023/01/11 10:12:58;;;;;;;21.00;4.03;;;9.00;99.90;;;;;;5106450;28;20032;-67
2023/01/11 10:15:26;;;;;;;17.13;2.50;;;;;;;;;;5080825;28;20025;-67
2023/01/11 10:18:13;;;;;;;18.07;2.17;;;9.20;99.90;;;;;;5077354;28;20009;-68
2023/01/11 10:20:46;;;;;;;17.17;3.00;;;9.00;99.90;;;;;;5077064;28;20016;-67
2023/01/11 10:23:27;;;;;;;15.07;2.83;;;9.30;99.90;;;;;;5082335;28;20118;-68
2023/01/11 10:26:01;;;;;;;18.70;3.33;;;9.30;99.90;;;;;;5074257;28;20033;-67
2023/01/11 10:28:44;;;;;;;;;;;9.20;99.90;;;;;;5075066;28;20048;-67
2023/01/11 10:31:29;;;;;;;15.27;3.37;;;9.40;99.90;;;;;;5084333;28;19991;-68
2023/01/11 10:43:16;;;;;;;19.70;2.63;;;9.60;99.90;;;;;;5050018;28;20562;-68
2023/01/11 10:45:49;;;;;;;17.90;3.37;;;9.40;99.90;;;;;;5082453;28;20040;-68
2023/01/11 10:48:41;;;;;;;27.17;4.23;;;9.70;99.90;;;;;;5090812;28;20027;-68
2023/01/11 10:51:36;;;;;;;17.30;2.93;;;9.70;99.90;;;;;;5080635;28;20130;-68
2023/01/11 10:54:23;;;;;;;16.05;3.40;;;10.00;99.90;;;;;;5083088;28;20101;-68
2023/01/11 10:56:48;;;;;;;15.53;3.07;;;;;;;;;;5089338;28;20072;-67
2023/01/11 10:59:52;;;;;;;14.50;2.50;;;10.00;99.90;;;;;;5084878;28;20472;-67
2023/01/11 11:03:05;;;;;;;23.03;3.17;;;9.90;99.90;;;;;;5084179;28;20764;-67
2023/01/11 11:05:46;;;;;;;21.83;3.80;;;10.20;99.90;;;;;;5045372;28;20048;-67
2023/01/11 11:08:35;;;;;;;18.17;2.50;;;9.80;99.90;;;;;;5082170;28;20023;-68
2023/01/11 11:11:04;;;;;;;13.70;2.90;;;10.00;99.90;;;;;;5075538;28;20037;-68
2023/01/11 11:13:57;;;;;;;16.30;3.10;;;10.10;99.90;;;;;;5098265;28;20098;-68
2023/01/11 11:16:23;;;;;;;19.87;3.07;;;10.10;99.90;;;;;;5087945;28;20024;-67
2023/01/11 11:18:54;;;;;;;15.23;3.07;;;10.10;99.90;;;;;;5074551;28;20027;-68
2023/01/11 11:21:39;;;;;;;15.67;3.30;;;10.20;99.90;;;;;;5075820;28;20038;-68
2023/01/11 11:24:17;;;;;;;16.03;2.50;;;10.00;99.90;;;;;;5085085;28;20342;-68
2023/01/11 11:26:46;;;;;;;18.37;3.33;;;10.20;99.90;;;;;;5083772;28;20035;-68
2023/01/11 11:29:21;;;;;;;18.43;2.57;;;10.10;99.90;;;;;;5089834;28;20102;-67
2023/01/11 11:31:48;;;;;;;24.37;3.40;;;10.10;99.90;;;;;;5097769;28;20357;-68
2023/01/11 11:34:16;;;;;;;21.37;3.13;;;10.20;99.90;;;;;;5105864;28;20027;-67
2023/01/11 11:36:48;;;;;;;26.53;2.87;;;10.00;99.90;;;;;;5084457;28;20977;-68
2023/01/11 11:39:18;;;;;;;16.77;2.57;;;10.10;99.90;;;;;;5085638;28;20154;-69
2023/01/11 11:41:52;;;;;;;20.43;2.10;;;10.30;99.90;;;;;;5085170;28;20074;-69
2023/01/11 11:44:25;;;;;;;17.73;3.37;;;10.40;99.90;;;;;;5081364;28;20051;-66
2023/01/11 11:47:00;;;;;;;13.93;2.83;;;10.30;99.90;;;;;;5081450;28;20024;-67
2023/01/11 11:49:26;;;;;;;20.70;3.20;;;10.50;99.90;;;;;;5095475;28;20016;-68
2023/01/11 11:51:52;;;;;;;14.33;2.70;;;;;;;;;;5088599;28;20037;-68
2023/01/11 11:54:28;;;;;;;14.97;2.93;;;10.40;99.90;;;;;;5080492;28;20043;-69
2023/01/11 11:56:56;;;;;;;18.97;2.73;;;10.50;99.90;;;;;;5097378;28;20024;-69
2023/01/11 11:59:27;;;;;;;18.00;3.03;;;10.60;99.90;;;;;;5101281;28;20487;-69
2023/01/11 12:02:04;;;;;;;20.47;4.20;;;10.30;99.90;;;;;;5092658;28;20492;-68
2023/01/11 12:04:49;;;;;;;25.67;4.10;;;10.30;99.90;;;;;;5099263;28;20027;-68
2023/01/11 12:07:20;;;;;;;18.50;3.60;;;10.30;99.90;;;;;;5085148;28;20477;-68
2023/01/11 12:09:49;;;;;;;29.97;4.30;;;10.30;99.90;;;;;;5082628;28;20519;-68
2023/01/11 12:12:18;;;;;;;16.50;2.93;;;10.30;99.90;;;;;;5068158;28;20078;-68
2023/01/11 12:15:22;;;;;;;20.90;4.00;;;10.30;99.90;;;;;;5085172;28;20043;-68
2023/01/11 12:17:49;;;;;;;10.13;2.13;;;;;;;;;;5076757;28;20397;-68
2023/01/11 12:20:20;;;;;;;21.53;3.33;;;10.50;99.90;;;;;;5083618;28;20077;-68
2023/01/11 12:22:46;;;;;;;22.57;3.60;;;10.60;99.90;;;;;;5093417;28;20016;-68
2023/01/11 12:25:12;;;;;;;20.53;2.47;;;;;;;;;;5090551;28;20027;-68
2023/01/11 12:27:53;;;;;;;22.93;3.00;;;10.50;99.90;;;;;;5074302;28;20374;-68
2023/01/11 12:30:19;;;;;;;33.30;4.37;;;;;;;;;;5073603;28;20032;-68
2023/01/11 12:33:23;;;;;;;26.67;5.80;;;10.60;99.90;;;;;;5084627;28;20039;-68
2023/01/11 12:36:02;;;;;;;16.47;3.63;;;10.80;99.90;;;;;;5009785;28;20438;-69
2023/01/11 12:38:42;;;;;;;16.87;2.90;;;10.50;99.90;;;;;;5010695;28;20034;-68
2023/01/11 12:41:48;;;;;;;17.57;2.50;;;10.50;99.90;;;;;;5010814;28;20597;-70
2023/01/11 12:44:40;;;;;;;15.67;2.80;;;10.50;99.90;;;;;;4992667;28;20056;-69
2023/01/11 12:47:17;;;;;;;18.63;2.73;;;10.50;99.90;;;;;;5008753;28;20037;-67
2023/01/11 12:49:45;;;;;;;18.87;3.87;;;10.40;99.90;;;;;;5007666;28;20506;-67
2023/01/11 12:52:28;;;;;;;16.07;3.90;;;10.30;99.90;;;;;;5010306;28;20045;-69
2023/01/11 12:55:14;;;;;;;16.47;3.10;;;10.30;99.90;;;;;;5010112;28;20057;-69
2023/01/11 12:57:53;;;;;;;18.67;3.70;;;10.50;99.90;;;;;;5023041;28;20824;-69
2023/01/11 13:00:36;;;;;;;17.33;3.03;;;10.50;99.90;;;;;;5009947;28;20036;-69
2023/01/11 13:03:35;;;;;;;22.40;5.63;;;10.50;99.90;;;;;;5010368;28;20494;-69
2023/01/11 13:06:13;;;;;;;13.93;3.20;;;10.50;99.90;;;;;;5003519;28;20049;-70
2023/01/11 13:08:51;;;;;;;17.43;3.07;;;10.60;99.90;;;;;;5010300;28;20729;-70
2023/01/11 13:11:35;;;;;;;23.83;2.90;;;10.50;99.90;;;;;;5026350;28;20020;-71
2023/01/11 13:14:15;;;;;;;15.98;2.47;;;10.50;99.90;;;;;;5092573;28;20103;-70
2023/01/11 13:17:15;;;;;;;19.23;2.83;;;10.70;99.90;;;;;;5079647;28;20035;-70
2023/01/11 13:20:18;;;;;;;24.23;4.73;;;10.60;99.90;;;;;;5089337;28;20043;-67
2023/01/11 13:23:00;;;;;;;15.83;2.73;;;10.80;99.90;;;;;;5091048;28;20031;-70
2023/01/11 13:25:32;;;;;;;19.60;3.13;;;10.70;99.90;;;;;;5090358;28;20028;-69
2023/01/11 13:28:02;;;;;;;20.73;2.93;;;10.70;99.90;;;;;;5078771;28;20020;-70
2023/01/11 13:30:29;;;;;;;15.60;2.40;;;10.50;99.90;;;;;;5090712;28;20024;-70
2023/01/11 13:33:05;;;;;;;22.33;3.60;;;10.60;99.90;;;;;;5088528;28;20069;-69
2023/01/11 13:35:53;;;;;;;17.77;3.40;;;10.60;99.90;;;;;;5096788;28;20024;-69
2023/01/11 13:38:46;;;;;;;26.23;4.03;;;10.60;99.90;;;;;;5084474;28;20026;-70
2023/01/11 13:41:22;;;;;;;20.00;3.33;;;10.20;99.90;;;;;;5079916;28;20040;-70
2023/01/11 13:43:58;;;;;;;12.90;2.23;;;10.50;99.90;;;;;;5083366;28;20029;-70
2023/01/11 13:46:29;;;;;;;20.87;2.73;;;10.60;99.90;;;;;;5079375;28;20019;-68